Time;durP1;ratioP1;P1;durP2;ratioP2;P2;SDS_P1;SDS_P2;PMS_P1;PMS_P2;Temp;Humidity;BMP_temperature;BMP_pressure;BME280_temperature;BME280_humidity;BME280_pressure;Samples;Min_cycle;Max_cycle;Signal;HPM_P1;HPM_P2
2023/09/30 03:08:32;;;;;;;13.77;4.57;;;17.30;85.50;;;;;;7392509;19;20006;-82
2023/09/30 07:43:12;;;;;;;18.85;4.95;;;17.90;90.40;;;;;;5264518;19;3075826;-82
2023/09/30 07:45:59;;;;;;;16.13;4.93;;;17.90;90.50;;;;;;7417080;19;20026;-84
2023/09/30 07:48:29;;;;;;;18.02;4.90;;;18.00;90.60;;;;;;7422090;19;20034;-82
2023/09/30 07:51:13;;;;;;;11.57;4.77;;;18.10;90.70;;;;;;7437745;19;20010;-82
2023/09/30 07:53:52;;;;;;;17.05;4.93;;;18.20;90.80;;;;;;7417860;19;20011;-83
2023/09/30 07:56:37;;;;;;;14.85;5.47;;;18.30;90.80;;;;;;7417972;19;20066;-83
2023/09/30 07:59:13;;;;;;;17.55;5.55;;;18.30;90.80;;;;;;7418040;19;20062;-83
2023/09/30 08:01:53;;;;;;;15.07;4.75;;;18.40;90.70;;;;;;7429444;19;20007;-82
2023/09/30 08:54:06;;;;;;;17.27;5.38;;;19.40;90.30;;;;;;4623079;19;11685035;-77
2023/09/30 08:56:47;;;;;;;19.40;4.93;;;19.40;90.20;;;;;;7415168;19;20274;-83
2023/09/30 08:59:22;;;;;;;20.27;4.93;;;19.50;90.10;;;;;;7414461;19;19998;-83
2023/09/30 09:01:58;;;;;;;22.60;5.53;;;19.60;90.00;;;;;;7416448;19;20013;-83
2023/09/30 09:04:28;;;;;;;22.88;4.93;;;19.70;89.80;;;;;;7416394;19;20238;-81
2023/09/30 09:06:57;;;;;;;23.90;4.63;;;19.70;89.60;;;;;;7420068;19;20075;-81
2023/09/30 09:09:29;;;;;;;21.83;4.50;;;19.70;89.40;;;;;;7436524;19;20017;-80
2023/09/30 09:11:58;;;;;;;16.45;5.30;;;19.80;89.30;;;;;;7438809;19;20006;-81
2023/09/30 09:14:40;;;;;;;23.77;4.80;;;19.80;89.30;;;;;;7417850;19;20010;-81
2023/09/30 09:17:13;;;;;;;18.10;4.50;;;19.80;89.10;;;;;;7418517;19;20437;-79
2023/09/30 09:19:48;;;;;;;17.58;4.72;;;19.90;89.00;;;;;;7394131;19;20016;-82
2023/09/30 09:22:16;;;;;;;20.88;5.05;;;19.90;89.10;;;;;;7440389;19;20305;-82
2023/09/30 09:24:54;;;;;;;17.63;5.07;;;20.00;89.20;;;;;;7418966;19;20010;-79
2023/09/30 09:27:37;;;;;;;25.58;5.10;;;20.00;90.00;;;;;;7444209;19;20007;-79
2023/09/30 09:30:20;;;;;;;27.80;4.93;;;20.10;89.10;;;;;;7406664;19;20231;-79
2023/09/30 09:37:03;;;;;;;;;;;;;;;;;;;;;
2023/09/30 10:09:57;;;;;;;23.80;4.82;;;20.60;89.10;;;;;;7339911;19;2004327;-79
2023/09/30 10:34:35;;;;;;;19.00;5.72;;;20.90;87.50;;;;;;7423430;19;20019;-81
2023/09/30 10:40:29;;;;;;;14.70;5.55;;;21.00;85.60;;;;;;7410787;19;20011;-79
2023/09/30 10:43:02;;;;;;;14.90;5.00;;;21.00;86.00;;;;;;7414209;19;20081;-80
2023/09/30 10:45:45;;;;;;;20.73;5.10;;;21.10;86.40;;;;;;7412574;19;20020;-76
2023/09/30 10:48:38;;;;;;;22.05;5.75;;;21.20;86.50;;;;;;7432715;19;20017;-75
2023/09/30 10:51:19;;;;;;;18.52;5.40;;;21.30;84.90;;;;;;7410975;19;19999;-76
2023/09/30 10:53:50;;;;;;;16.33;5.67;;;21.30;84.90;;;;;;7410671;19;20125;-76
2023/09/30 10:56:21;;;;;;;21.58;6.13;;;21.40;84.10;;;;;;7411177;19;20239;-81
2023/09/30 10:58:51;;;;;;;18.52;6.20;;;21.40;83.60;;;;;;7410410;19;20390;-76
2023/09/30 11:01:23;;;;;;;18.50;5.78;;;21.40;83.50;;;;;;7414171;19;20019;-78
2023/09/30 11:03:53;;;;;;;28.92;6.15;;;21.50;83.30;;;;;;7393792;19;20010;-80
2023/09/30 11:06:39;;;;;;;23.80;6.70;;;21.50;83.30;;;;;;7412084;19;20014;-86
2023/09/30 11:09:21;;;;;;;20.58;6.15;;;21.60;83.20;;;;;;7361804;19;20018;-77
2023/09/30 11:12:22;;;;;;;16.92;6.38;;;21.60;82.70;;;;;;7384344;19;20339;-77
2023/09/30 11:15:02;;;;;;;;;;;21.70;83.10;;;;;;7383959;19;20006;-76
2023/09/30 11:17:36;;;;;;;18.00;5.72;;;21.70;82.80;;;;;;7383045;19;19910;-78
2023/09/30 11:20:09;;;;;;;25.02;6.35;;;21.70;82.40;;;;;;7382973;19;19995;-76
2023/09/30 11:22:44;;;;;;;20.80;6.20;;;21.80;82.20;;;;;;7379298;19;20102;-77
2023/09/30 11:25:29;;;;;;;;;;;;;;;;;;;;;
2023/09/30 11:28:16;;;;;;;16.73;6.22;;;21.80;81.90;;;;;;7381844;19;20345;-77
2023/09/30 11:31:11;;;;;;;18.35;6.30;;;21.80;81.00;;;;;;7382692;19;20554;-76
2023/09/30 11:33:53;;;;;;;24.65;6.18;;;21.80;80.90;;;;;;7383685;19;20380;-76
2023/09/30 11:36:23;;;;;;;24.20;6.30;;;21.80;80.90;;;;;;7404195;19;20019;-77
2023/09/30 11:38:55;;;;;;;18.33;6.53;;;21.90;80.80;;;;;;7383785;19;20040;-76
2023/09/30 11:41:25;;;;;;;22.08;6.80;;;21.80;80.90;;;;;;7383763;19;20003;-78
2023/09/30 11:44:10;;;;;;;20.85;6.35;;;21.80;81.40;;;;;;7383999;19;20002;-78
2023/09/30 11:46:57;;;;;;;20.48;6.68;;;21.90;82.10;;;;;;7383179;19;20014;-78
2023/09/30 11:49:31;;;;;;;21.20;6.22;;;21.90;82.00;;;;;;7384040;19;20393;-78
2023/09/30 11:52:01;;;;;;;16.90;6.38;;;22.00;82.10;;;;;;7382950;19;20042;-78
2023/09/30 11:54:39;;;;;;;21.83;6.75;;;22.00;82.10;;;;;;7382802;19;20023;-79
2023/09/30 11:57:09;;;;;;;24.52;5.68;;;22.00;81.90;;;;;;7403854;19;20658;-79
2023/09/30 11:59:39;;;;;;;18.75;6.20;;;22.10;81.20;;;;;;7384666;19;20027;-81
2023/09/30 12:02:08;;;;;;;23.88;5.75;;;22.10;81.10;;;;;;7382940;19;20003;-77
2023/09/30 12:04:37;;;;;;;22.30;5.85;;;22.10;80.90;;;;;;7381572;19;20002;-79
2023/09/30 12:07:06;;;;;;;16.88;6.38;;;22.20;81.20;;;;;;7381873;19;20022;-77
2023/09/30 12:09:39;;;;;;;18.73;6.18;;;22.20;81.00;;;;;;7382163;19;20007;-77
2023/09/30 12:12:09;;;;;;;17.27;6.07;;;22.30;80.90;;;;;;7403331;19;20013;-78
2023/09/30 12:14:37;;;;;;;18.52;6.10;;;22.30;80.60;;;;;;7380551;19;20017;-77
2023/09/30 12:17:10;;;;;;;18.52;6.03;;;22.30;80.30;;;;;;7383958;19;20002;-78
2023/09/30 12:19:39;;;;;;;14.77;5.63;;;22.40;80.40;;;;;;7388403;19;20009;-77
2023/09/30 12:22:09;;;;;;;15.43;5.90;;;22.40;80.20;;;;;;7387639;19;20027;-78
2023/09/30 12:24:41;;;;;;;32.45;6.57;;;22.40;80.30;;;;;;7387462;19;20006;-78
2023/09/30 12:27:09;;;;;;;20.42;5.95;;;22.40;80.50;;;;;;7404911;19;20011;-78
2023/09/30 12:29:41;;;;;;;15.27;5.43;;;22.40;80.20;;;;;;7382636;19;20009;-78
2023/09/30 12:32:10;;;;;;;20.80;5.63;;;22.50;80.50;;;;;;7382103;19;20011;-78
2023/09/30 12:34:39;;;;;;;19.80;6.70;;;22.40;80.80;;;;;;7381743;19;20074;-77
2023/09/30 12:37:07;;;;;;;18.58;6.20;;;22.50;81.20;;;;;;7381404;19;20079;-78
2023/09/30 12:39:36;;;;;;;21.70;6.20;;;22.50;81.50;;;;;;7381177;19;20407;-78
2023/09/30 12:42:09;;;;;;;17.10;5.82;;;22.50;81.60;;;;;;7400640;19;20002;-77
2023/09/30 12:44:38;;;;;;;17.73;6.00;;;22.50;81.50;;;;;;7381848;19;20011;-78
2023/09/30 12:47:07;;;;;;;14.40;5.60;;;22.50;81.80;;;;;;7383711;19;20020;-78
2023/09/30 12:49:36;;;;;;;11.93;5.30;;;22.50;81.80;;;;;;7382396;19;20070;-78
2023/09/30 12:52:05;;;;;;;16.70;5.60;;;22.60;81.40;;;;;;7382612;19;20007;-78
2023/09/30 12:54:34;;;;;;;17.45;6.22;;;22.70;81.70;;;;;;7378296;19;20142;-77
2023/09/30 12:57:03;;;;;;;19.35;5.97;;;22.80;81.80;;;;;;7403902;19;20010;-78
2023/09/30 12:59:34;;;;;;;15.75;6.13;;;23.00;81.70;;;;;;7382609;19;20007;-79
2023/09/30 13:02:05;;;;;;;20.40;6.40;;;23.10;81.90;;;;;;7380210;19;20024;-77
2023/09/30 13:04:34;;;;;;;17.80;6.20;;;23.30;80.70;;;;;;7380329;19;20082;-78
2023/09/30 13:07:06;;;;;;;17.08;5.90;;;23.30;80.30;;;;;;7380976;19;20540;-78
2023/09/30 13:09:36;;;;;;;30.20;6.10;;;23.30;81.10;;;;;;7381168;19;20006;-78
2023/09/30 13:12:05;;;;;;;15.02;6.22;;;23.30;79.70;;;;;;7402141;19;20283;-79
2023/09/30 13:14:38;;;;;;;14.68;5.85;;;23.40;79.80;;;;;;7381521;19;20024;-79
2023/09/30 13:17:07;;;;;;;18.48;5.70;;;23.50;80.90;;;;;;7382474;19;20013;-78
2023/09/30 13:19:37;;;;;;;14.73;6.15;;;23.60;79.70;;;;;;7382957;19;20027;-79
2023/09/30 13:22:06;;;;;;;15.45;5.82;;;23.60;78.70;;;;;;7382663;19;20003;-79
2023/09/30 13:24:39;;;;;;;19.83;6.22;;;23.60;78.70;;;;;;7385086;19;20018;-78
2023/09/30 13:27:08;;;;;;;16.48;6.60;;;23.60;78.60;;;;;;7403535;19;20017;-78
2023/09/30 13:29:41;;;;;;;17.40;6.03;;;23.60;79.00;;;;;;7380446;19;20006;-78
2023/09/30 13:32:11;;;;;;;16.08;6.13;;;23.70;78.80;;;;;;7379482;19;20007;-77
2023/09/30 13:34:40;;;;;;;17.73;6.25;;;23.80;78.50;;;;;;7380235;19;20006;-77
2023/09/30 13:37:09;;;;;;;15.70;6.22;;;23.80;78.20;;;;;;7381539;19;20199;-78
2023/09/30 13:39:38;;;;;;;16.13;5.97;;;24.00;77.50;;;;;;7380916;19;20224;-77
2023/09/30 13:42:07;;;;;;;17.15;6.43;;;24.00;77.60;;;;;;7408090;19;20066;-78
2023/09/30 13:44:36;;;;;;;15.02;6.07;;;24.10;77.20;;;;;;7384423;19;20003;-77
2023/09/30 13:47:09;;;;;;;21.52;7.28;;;24.20;77.40;;;;;;7380949;19;20232;-77
2023/09/30 13:49:38;;;;;;;15.80;6.15;;;24.20;77.30;;;;;;7382987;19;20011;-77
2023/09/30 13:52:08;;;;;;;18.63;6.57;;;24.30;77.00;;;;;;7380003;19;20011;-79
2023/09/30 13:54:36;;;;;;;22.38;6.80;;;24.40;76.70;;;;;;7381529;19;20010;-79
2023/09/30 13:57:05;;;;;;;15.43;5.95;;;24.40;76.80;;;;;;7401073;19;20062;-78
2023/09/30 13:59:38;;;;;;;16.10;6.45;;;24.50;76.90;;;;;;7379083;19;20002;-78
2023/09/30 14:02:09;;;;;;;20.02;6.60;;;24.60;76.10;;;;;;7379264;19;20370;-79
2023/09/30 14:04:38;;;;;;;21.48;6.80;;;24.60;75.80;;;;;;7379028;19;20003;-78
2023/09/30 14:07:07;;;;;;;14.70;5.85;;;24.60;76.00;;;;;;7380319;19;20011;-78
2023/09/30 14:09:37;;;;;;;16.10;6.50;;;24.60;76.30;;;;;;7378093;19;20027;-78
2023/09/30 14:12:07;;;;;;;16.08;6.35;;;24.60;76.20;;;;;;7400591;19;20548;-78
2023/09/30 14:14:36;;;;;;;17.73;7.18;;;24.60;76.60;;;;;;7386420;19;20564;-80
2023/09/30 14:17:10;;;;;;;20.13;6.40;;;24.60;75.90;;;;;;7387512;19;20039;-78
2023/09/30 14:19:41;;;;;;;16.30;6.68;;;24.60;75.90;;;;;;7387360;19;20027;-80
2023/09/30 14:22:10;;;;;;;22.35;6.55;;;24.70;75.10;;;;;;7384985;19;20027;-79
2023/09/30 14:24:39;;;;;;;15.00;6.50;;;24.60;75.00;;;;;;7377370;19;20375;-78
2023/09/30 14:27:09;;;;;;;14.15;6.38;;;24.50;75.20;;;;;;7401418;19;20024;-78
2023/09/30 14:29:37;;;;;;;18.63;6.25;;;24.50;75.80;;;;;;7379015;19;20080;-77
2023/09/30 14:32:06;;;;;;;20.00;6.70;;;24.50;76.60;;;;;;7378099;19;20419;-77
2023/09/30 14:34:38;;;;;;;17.30;6.22;;;24.50;75.70;;;;;;7379326;19;20006;-77
2023/09/30 14:37:06;;;;;;;18.63;6.50;;;24.60;76.10;;;;;;7383912;19;20299;-79
2023/09/30 14:39:36;;;;;;;20.05;6.72;;;24.60;76.10;;;;;;7388211;19;20027;-79
2023/09/30 14:42:05;;;;;;;19.85;6.55;;;24.60;76.00;;;;;;7408437;19;20010;-79
2023/09/30 14:44:34;;;;;;;13.73;6.10;;;24.70;76.20;;;;;;7386541;19;20315;-79
2023/09/30 14:47:04;;;;;;;15.23;6.50;;;24.70;76.70;;;;;;7387448;19;20407;-79
2023/09/30 14:49:33;;;;;;;12.50;6.03;;;24.70;76.60;;;;;;7386873;19;20275;-79
2023/09/30 14:52:05;;;;;;;14.45;6.32;;;24.60;76.00;;;;;;7384539;19;20010;-77
2023/09/30 14:54:34;;;;;;;21.05;6.65;;;24.50;75.90;;;;;;7383033;19;20078;-79
2023/09/30 14:57:03;;;;;;;18.42;6.43;;;24.40;76.60;;;;;;7407777;19;20039;-79
2023/09/30 14:59:35;;;;;;;13.07;6.30;;;24.40;77.20;;;;;;7390393;19;20018;-79
2023/09/30 15:02:08;;;;;;;17.23;6.60;;;24.30;77.50;;;;;;7388455;19;20024;-79
2023/09/30 15:04:38;;;;;;;19.85;6.25;;;24.20;77.50;;;;;;7386246;19;20006;-79
2023/09/30 15:07:10;;;;;;;17.80;6.80;;;24.20;77.50;;;;;;7386898;19;20003;-77
2023/09/30 15:09:40;;;;;;;20.75;6.90;;;24.10;77.50;;;;;;7385851;19;20010;-79
2023/09/30 15:12:10;;;;;;;16.17;6.30;;;24.10;77.80;;;;;;7403901;19;20007;-78
2023/09/30 15:14:40;;;;;;;14.98;6.20;;;24.00;78.10;;;;;;7386611;19;20051;-78
2023/09/30 15:17:09;;;;;;;27.80;7.50;;;23.90;78.00;;;;;;7385764;19;20011;-79
2023/09/30 15:19:37;;;;;;;19.55;6.82;;;23.90;78.20;;;;;;7385656;19;20015;-78
2023/09/30 15:22:06;;;;;;;21.50;7.45;;;24.00;78.60;;;;;;7385645;19;20006;-79
2023/09/30 15:24:37;;;;;;;18.13;6.43;;;24.00;78.30;;;;;;7387239;19;20014;-78
2023/09/30 15:27:07;;;;;;;15.73;6.38;;;24.10;77.80;;;;;;7409677;19;20014;-79
2023/09/30 15:29:36;;;;;;;22.60;6.72;;;24.10;77.70;;;;;;7385096;19;20027;-79
2023/09/30 15:32:07;;;;;;;13.35;6.40;;;24.10;77.70;;;;;;7383971;19;20031;-79
2023/09/30 15:34:39;;;;;;;;;;;24.10;78.00;;;;;;7386799;19;20031;-78
2023/09/30 15:37:08;;;;;;;15.52;6.32;;;24.10;78.10;;;;;;7385895;19;19944;-78
2023/09/30 15:39:43;;;;;;;19.85;6.75;;;24.10;77.80;;;;;;7385983;19;20014;-79
2023/09/30 15:42:12;;;;;;;17.73;6.97;;;24.10;77.50;;;;;;7404707;19;19999;-79
2023/09/30 15:44:41;;;;;;;22.00;7.03;;;24.10;77.70;;;;;;7383624;19;20020;-79
2023/09/30 15:47:11;;;;;;;22.50;7.25;;;24.10;77.80;;;;;;7383516;19;20437;-77
2023/09/30 15:49:40;;;;;;;16.98;7.03;;;24.00;77.70;;;;;;7389846;19;20003;-80
2023/09/30 15:52:09;;;;;;;19.67;7.25;;;24.00;77.70;;;;;;7385656;19;20011;-78
2023/09/30 15:54:37;;;;;;;19.33;7.07;;;24.00;78.60;;;;;;7382371;19;20022;-79
2023/09/30 15:57:09;;;;;;;18.27;6.90;;;23.80;80.30;;;;;;7404434;19;20003;-79
2023/09/30 15:59:40;;;;;;;19.25;7.47;;;23.80;81.50;;;;;;7384869;19;20003;-79
2023/09/30 16:02:09;;;;;;;28.17;7.55;;;23.70;82.40;;;;;;7384677;19;20264;-79
2023/09/30 16:04:40;;;;;;;15.73;6.90;;;23.70;82.80;;;;;;7384158;19;20003;-79
2023/09/30 16:07:10;;;;;;;21.03;6.77;;;23.70;83.00;;;;;;7383661;19;20070;-80
2023/09/30 16:09:39;;;;;;;21.77;7.30;;;23.70;83.30;;;;;;7384461;19;20010;-79
2023/09/30 16:12:13;;;;;;;20.65;7.13;;;23.70;83.70;;;;;;7407802;19;20006;-79
2023/09/30 16:14:42;;;;;;;15.23;7.05;;;23.70;84.00;;;;;;7390280;19;20003;-79
2023/09/30 16:17:11;;;;;;;20.52;7.03;;;23.70;83.80;;;;;;7387197;19;20007;-79
2023/09/30 16:19:40;;;;;;;17.95;7.03;;;23.70;84.90;;;;;;7388419;19;20094;-79
2023/09/30 16:22:12;;;;;;;18.58;6.80;;;23.70;84.10;;;;;;7391358;19;20010;-80
2023/09/30 16:24:40;;;;;;;;;;;23.70;84.10;;;;;;7393195;19;20007;-79
2023/09/30 16:27:12;;;;;;;16.77;6.68;;;23.70;84.00;;;;;;7408957;19;19915;-80
2023/09/30 16:29:41;;;;;;;15.50;6.85;;;23.70;84.10;;;;;;7383419;19;20006;-78
2023/09/30 16:32:10;;;;;;;19.67;7.28;;;23.70;85.00;;;;;;7382714;19;20014;-79
2023/09/30 16:34:39;;;;;;;18.27;6.60;;;23.60;84.70;;;;;;7382203;19;20002;-79
2023/09/30 16:37:08;;;;;;;16.67;6.45;;;23.50;85.30;;;;;;7384332;19;20006;-79
2023/09/30 16:39:37;;;;;;;23.10;7.30;;;23.40;85.70;;;;;;7385527;19;20268;-79
2023/09/30 16:42:08;;;;;;;19.25;7.43;;;23.30;86.10;;;;;;7403768;19;20006;-83
2023/09/30 16:44:41;;;;;;;16.23;6.30;;;23.20;86.60;;;;;;7384370;19;20023;-80
2023/09/30 16:47:10;;;;;;;17.05;7.03;;;23.10;86.60;;;;;;7384293;19;20006;-80
2023/09/30 16:49:39;;;;;;;17.88;7.30;;;23.10;86.70;;;;;;7385126;19;20224;-80
2023/09/30 16:52:08;;;;;;;16.25;6.93;;;23.00;87.10;;;;;;7385901;19;20003;-80
2023/09/30 16:54:38;;;;;;;18.88;6.75;;;22.90;87.20;;;;;;7382705;19;20011;-79
2023/09/30 16:57:07;;;;;;;20.23;7.57;;;22.80;87.60;;;;;;7403315;19;20006;-80
2023/09/30 16:59:38;;;;;;;24.73;7.28;;;22.80;87.70;;;;;;7385315;19;20015;-80
2023/09/30 17:02:08;;;;;;;;;;;22.70;88.10;;;;;;7385369;19;20374;-78
2023/09/30 17:04:37;;;;;;;16.35;6.78;;;22.60;88.30;;;;;;7381186;19;20243;-77
2023/09/30 17:07:06;;;;;;;17.23;7.13;;;22.50;88.40;;;;;;7380985;19;20424;-79
2023/09/30 17:09:35;;;;;;;18.63;7.63;;;22.40;88.60;;;;;;7380256;19;20062;-79
2023/09/30 17:12:03;;;;;;;20.95;7.15;;;22.30;88.70;;;;;;7401591;19;20010;-79
2023/09/30 17:14:35;;;;;;;21.48;7.82;;;22.30;89.00;;;;;;7380491;19;20030;-78
2023/09/30 17:17:08;;;;;;;21.48;8.23;;;22.20;89.00;;;;;;7381168;19;20006;-78
2023/09/30 17:19:37;;;;;;;15.82;7.20;;;22.20;89.20;;;;;;7381655;19;20018;-79
2023/09/30 17:22:06;;;;;;;21.23;7.88;;;22.20;89.40;;;;;;7382247;19;20436;-79
2023/09/30 17:24:34;;;;;;;20.27;8.25;;;22.10;89.30;;;;;;7381751;19;20011;-79
2023/09/30 17:27:03;;;;;;;25.45;8.18;;;22.10;89.60;;;;;;7400756;19;20680;-78
2023/09/30 17:29:32;;;;;;;23.92;7.82;;;22.00;89.80;;;;;;7381381;19;20010;-79
2023/09/30 17:32:03;;;;;;;17.55;7.78;;;22.00;90.00;;;;;;7380584;19;20031;-79
2023/09/30 17:34:37;;;;;;;24.88;8.27;;;21.90;90.00;;;;;;7380282;19;20035;-78
2023/09/30 17:37:06;;;;;;;15.93;8.07;;;21.80;90.00;;;;;;7380035;19;20358;-79
2023/09/30 17:39:35;;;;;;;18.73;8.02;;;21.70;90.10;;;;;;7381490;19;20035;-79
2023/09/30 17:42:04;;;;;;;21.50;7.68;;;21.60;90.30;;;;;;7401017;19;20007;-78
2023/09/30 17:44:33;;;;;;;25.48;7.82;;;21.50;90.40;;;;;;7381310;19;20064;-79
2023/09/30 17:47:05;;;;;;;30.60;8.55;;;21.50;90.50;;;;;;7381351;19;20007;-78
2023/09/30 17:49:37;;;;;;;18.52;8.25;;;21.40;90.70;;;;;;7382156;19;20007;-80
2023/09/30 17:52:06;;;;;;;25.67;8.18;;;21.20;90.80;;;;;;7382404;19;20398;-79
2023/09/30 17:54:35;;;;;;;25.05;7.78;;;21.20;91.00;;;;;;7380661;19;20014;-79
2023/09/30 17:57:03;;;;;;;19.98;8.07;;;21.20;91.00;;;;;;7403918;19;20011;-79
2023/09/30 17:59:35;;;;;;;22.25;8.05;;;21.20;91.00;;;;;;7381005;19;20014;-79
2023/09/30 18:02:04;;;;;;;22.40;8.40;;;21.20;91.00;;;;;;7381488;19;20003;-78
2023/09/30 18:04:41;;;;;;;20.85;8.15;;;21.10;91.00;;;;;;7382265;19;20007;-78
2023/09/30 18:07:11;;;;;;;23.10;7.88;;;21.10;91.00;;;;;;7380522;19;20017;-79
2023/09/30 18:09:40;;;;;;;24.83;7.78;;;21.10;91.00;;;;;;7381425;19;20035;-78
2023/09/30 18:12:09;;;;;;;17.08;7.53;;;21.10;91.00;;;;;;7399750;19;20010;-77
2023/09/30 18:14:38;;;;;;;21.90;8.60;;;21.00;91.20;;;;;;7385240;19;20011;-78
2023/09/30 18:17:06;;;;;;;17.90;8.13;;;20.90;91.30;;;;;;7386780;19;20006;-79
2023/09/30 18:19:38;;;;;;;20.13;8.23;;;20.90;91.30;;;;;;7390179;19;20035;-79
2023/09/30 18:22:06;;;;;;;;;;;20.90;91.30;;;;;;7405905;19;20003;-78
2023/09/30 18:24:35;;;;;;;24.58;7.60;;;20.90;91.30;;;;;;7403863;19;19919;-78
2023/09/30 18:27:07;;;;;;;20.65;7.82;;;20.90;91.20;;;;;;7431500;19;20024;-79
2023/09/30 18:29:36;;;;;;;20.13;8.27;;;20.90;91.20;;;;;;7407842;19;20015;-78
2023/09/30 18:32:05;;;;;;;18.85;8.07;;;20.90;91.20;;;;;;7395559;19;20035;-79
2023/09/30 18:34:40;;;;;;;25.60;8.18;;;20.90;91.30;;;;;;7387794;19;20006;-79
2023/09/30 18:37:11;;;;;;;20.85;8.52;;;20.90;91.30;;;;;;7387595;19;20010;-79
2023/09/30 18:39:40;;;;;;;25.25;8.10;;;20.80;91.40;;;;;;7386227;19;20010;-79
2023/09/30 18:42:09;;;;;;;21.73;8.13;;;20.80;91.50;;;;;;7406413;19;20031;-79
2023/09/30 18:44:38;;;;;;;19.27;7.80;;;20.80;91.60;;;;;;7388718;19;20358;-79
2023/09/30 18:47:07;;;;;;;21.58;8.00;;;20.70;92.00;;;;;;7393396;19;19998;-79
2023/09/30 18:49:43;;;;;;;21.20;8.30;;;20.70;91.70;;;;;;7389136;19;20028;-79
2023/09/30 18:52:13;;;;;;;18.73;7.93;;;20.70;91.70;;;;;;7384597;19;20243;-80
2023/09/30 18:54:41;;;;;;;19.00;7.43;;;20.70;91.70;;;;;;7384979;19;20002;-78
2023/09/30 18:57:10;;;;;;;20.10;8.27;;;20.60;91.70;;;;;;7405426;19;20007;-79
2023/09/30 18:59:40;;;;;;;28.45;8.63;;;20.60;91.70;;;;;;7386322;19;20007;-80
2023/09/30 19:02:09;;;;;;;19.50;8.65;;;20.60;91.70;;;;;;7386660;19;20014;-79
2023/09/30 19:04:45;;;;;;;24.67;8.35;;;20.60;91.70;;;;;;7387035;19;20015;-79
2023/09/30 19:07:14;;;;;;;19.83;7.90;;;20.60;91.80;;;;;;7387160;19;20019;-79
2023/09/30 19:09:43;;;;;;;21.23;8.05;;;20.60;91.90;;;;;;7384843;19;20022;-79
2023/09/30 19:12:12;;;;;;;28.25;8.02;;;20.60;91.90;;;;;;7405666;19;20017;-79
2023/09/30 19:14:40;;;;;;;17.23;7.72;;;20.50;91.90;;;;;;7385177;19;20010;-79
2023/09/30 19:17:09;;;;;;;23.27;8.57;;;20.50;91.90;;;;;;7385829;19;20035;-78
2023/09/30 19:19:42;;;;;;;26.90;8.65;;;20.50;91.90;;;;;;7385294;19;20006;-77
2023/09/30 19:22:10;;;;;;;20.88;8.50;;;20.50;91.90;;;;;;7384692;19;20279;-78
2023/09/30 19:24:39;;;;;;;22.95;8.10;;;20.50;91.90;;;;;;7384060;19;20363;-79
2023/09/30 19:27:10;;;;;;;24.42;8.90;;;20.50;91.90;;;;;;7406670;19;20028;-79
2023/09/30 19:29:38;;;;;;;21.03;9.23;;;20.50;91.90;;;;;;7385081;19;20223;-78
2023/09/30 19:32:09;;;;;;;23.90;8.48;;;20.50;91.80;;;;;;7384629;19;20043;-79
2023/09/30 19:34:42;;;;;;;18.40;8.57;;;20.40;91.80;;;;;;7384432;19;20007;-78
2023/09/30 19:37:12;;;;;;;26.33;8.73;;;20.40;91.80;;;;;;7385192;19;20013;-79
2023/09/30 19:39:44;;;;;;;26.48;8.52;;;20.40;91.90;;;;;;7384999;19;20007;-79
2023/09/30 19:42:13;;;;;;;22.35;8.00;;;20.40;92.00;;;;;;7404266;19;20010;-78
2023/09/30 19:44:44;;;;;;;24.08;8.60;;;20.30;92.00;;;;;;7383408;19;20006;-78
2023/09/30 19:47:13;;;;;;;18.60;7.75;;;20.30;92.10;;;;;;7383964;19;20007;-78
2023/09/30 19:49:44;;;;;;;23.10;8.43;;;20.30;91.90;;;;;;7384149;19;20018;-79
2023/09/30 19:52:14;;;;;;;22.13;8.90;;;20.30;91.90;;;;;;7384009;19;20006;-79
2023/09/30 19:54:42;;;;;;;21.00;8.80;;;20.30;91.90;;;;;;7383372;19;20007;-79
2023/09/30 19:57:11;;;;;;;28.60;9.85;;;20.30;91.90;;;;;;7407298;19;20002;-78
2023/09/30 19:59:42;;;;;;;21.30;8.38;;;20.20;92.00;;;;;;7383070;19;20003;-79
2023/09/30 20:02:11;;;;;;;22.50;8.38;;;20.20;92.00;;;;;;7383896;19;20003;-79
2023/09/30 20:04:40;;;;;;;19.90;7.90;;;20.20;92.10;;;;;;7384885;19;20011;-79
2023/09/30 20:07:12;;;;;;;26.52;8.73;;;20.10;92.10;;;;;;7385177;19;20019;-79
2023/09/30 20:09:41;;;;;;;43.40;14.93;;;20.10;92.10;;;;;;7383808;19;20010;-79
2023/09/30 20:12:11;;;;;;;29.42;12.38;;;20.00;92.10;;;;;;7404022;19;20107;-78
2023/09/30 20:14:41;;;;;;;23.73;10.55;;;20.00;92.20;;;;;;7382729;19;20013;-79
2023/09/30 20:17:09;;;;;;;27.92;10.55;;;20.00;92.20;;;;;;7384929;19;20342;-80
2023/09/30 20:19:44;;;;;;;25.10;11.75;;;20.00;92.20;;;;;;7386275;19;20002;-81
2023/09/30 20:22:48;;;;;;;24.15;9.32;;;20.00;92.20;;;;;;7386747;19;20010;-82
2023/09/30 20:25:23;;;;;;;29.20;11.80;;;20.00;92.20;;;;;;7381967;19;20006;-77
2023/09/30 20:28:16;;;;;;;24.63;11.27;;;20.00;92.10;;;;;;7382196;19;20023;-77
2023/09/30 20:31:16;;;;;;;;;;;;;;;;;;;;;
2023/09/30 20:33:48;;;;;;;27.48;11.32;;;19.90;91.90;;;;;;7385842;19;20007;-77
2023/09/30 20:36:18;;;;;;;23.13;9.00;;;20.00;92.00;;;;;;7400307;19;20003;-78
2023/09/30 20:38:51;;;;;;;21.70;9.13;;;20.00;92.00;;;;;;7378880;19;20031;-77
2023/09/30 20:41:24;;;;;;;20.58;8.60;;;20.00;92.00;;;;;;7380819;19;20007;-78
2023/09/30 20:43:59;;;;;;;24.23;8.93;;;19.90;92.00;;;;;;7379549;19;20021;-78
2023/09/30 20:46:40;;;;;;;;;;;;;;;;;;;;;
2023/09/30 20:49:19;;;;;;;;;;;;;;;;;;;;;
2023/09/30 20:54:30;;;;;;;26.73;10.73;;;19.90;91.80;;;;;;7376072;19;20011;-78
2023/09/30 20:57:25;;;;;;;28.85;10.23;;;19.90;91.90;;;;;;7402778;19;20007;-78
2023/09/30 20:59:55;;;;;;;25.42;11.05;;;19.80;92.30;;;;;;7380841;19;20027;-78
2023/09/30 21:02:24;;;;;;;23.27;11.02;;;19.80;92.10;;;;;;7381617;19;20015;-78
2023/09/30 21:04:53;;;;;;;25.52;10.32;;;19.80;92.20;;;;;;7380820;19;20089;-78
2023/09/30 21:07:27;;;;;;;33.80;10.80;;;19.80;92.10;;;;;;7381148;19;20027;-78
2023/09/30 21:09:58;;;;;;;25.13;10.05;;;19.70;92.10;;;;;;7380115;19;20017;-77
2023/09/30 21:12:35;;;;;;;23.48;9.48;;;19.70;92.00;;;;;;7388939;19;20010;-78
2023/09/30 21:15:08;;;;;;;23.65;9.85;;;19.70;92.10;;;;;;7402065;19;20011;-77
2023/09/30 21:17:37;;;;;;;26.25;9.45;;;19.70;92.10;;;;;;7387357;19;20007;-78
2023/09/30 21:20:14;;;;;;;24.55;9.02;;;19.70;92.20;;;;;;7385425;19;20014;-78
2023/09/30 21:22:44;;;;;;;22.63;8.50;;;19.70;92.20;;;;;;7382733;19;20019;-77
2023/09/30 21:25:15;;;;;;;24.85;9.38;;;19.60;92.20;;;;;;7379347;19;20014;-77
2023/09/30 21:27:52;;;;;;;23.73;9.18;;;19.60;92.20;;;;;;7380287;19;20014;-77
2023/09/30 21:30:54;;;;;;;23.40;9.60;;;19.60;92.10;;;;;;7401718;19;20071;-77
2023/09/30 21:33:24;;;;;;;33.88;14.32;;;19.60;92.00;;;;;;7277221;19;2004984;-80
2023/09/30 21:36:26;;;;;;;;;;;;;;;;;;;;;
2023/09/30 21:38:55;;;;;;;19.73;8.90;;;19.60;92.10;;;;;;7377330;19;20660;-77
2023/09/30 21:41:28;;;;;;;26.30;9.23;;;19.60;92.00;;;;;;7378580;19;20006;-77
2023/09/30 21:44:03;;;;;;;28.98;9.27;;;19.60;91.80;;;;;;7379229;19;20011;-77
2023/09/30 21:46:34;;;;;;;28.20;9.63;;;19.60;91.80;;;;;;7378847;19;20243;-78
2023/09/30 21:49:03;;;;;;;21.90;9.80;;;19.60;91.90;;;;;;7379254;19;20091;-77
2023/09/30 21:51:34;;;;;;;26.70;10.55;;;19.60;91.80;;;;;;7379506;19;20377;-77
2023/09/30 21:54:09;;;;;;;21.48;9.75;;;19.60;91.80;;;;;;7400176;19;20006;-77
2023/09/30 21:56:42;;;;;;;25.13;9.63;;;19.60;91.80;;;;;;7378234;19;20028;-77
2023/09/30 21:59:13;;;;;;;21.20;9.30;;;19.50;91.50;;;;;;7378367;19;20011;-77
2023/09/30 22:01:46;;;;;;;25.15;10.07;;;19.50;91.50;;;;;;7378757;19;20006;-77
2023/09/30 22:04:16;;;;;;;26.02;11.32;;;19.50;91.50;;;;;;7379832;19;20006;-77
2023/09/30 22:06:54;;;;;;;;;;;;;;;;;;;;;
2023/09/30 22:09:28;;;;;;;26.00;10.57;;;19.50;91.60;;;;;;7397594;19;20003;-77
2023/09/30 22:12:00;;;;;;;24.05;10.60;;;19.50;91.50;;;;;;7378302;19;20011;-77
2023/09/30 22:14:33;;;;;;;33.30;10.23;;;19.50;91.40;;;;;;7377257;19;20046;-77
2023/09/30 22:17:03;;;;;;;24.75;10.23;;;19.50;91.40;;;;;;7378429;19;20002;-77
2023/09/30 22:19:32;;;;;;;25.13;10.23;;;19.50;91.40;;;;;;7377785;19;20026;-77
2023/09/30 22:22:01;;;;;;;25.70;9.80;;;19.50;91.40;;;;;;7379801;19;20007;-77
2023/09/30 22:25:06;;;;;;;;;;;;;;;;;;;;;
2023/09/30 22:27:42;;;;;;;30.83;9.48;;;19.40;91.50;;;;;;7381661;19;19999;-77
2023/09/30 22:30:14;;;;;;;26.48;10.05;;;19.40;91.40;;;;;;7407471;19;20009;-77
2023/09/30 22:32:59;;;;;;;;;;;;;;;;;;;;;
2023/09/30 22:35:33;;;;;;;25.00;9.85;;;19.40;91.40;;;;;;7379065;19;20031;-78
2023/09/30 22:38:06;;;;;;;20.65;9.48;;;19.40;91.30;;;;;;7380076;19;20211;-78
2023/09/30 22:40:40;;;;;;;33.25;11.15;;;19.30;91.30;;;;;;7377297;19;20022;-78
2023/09/30 22:43:28;;;;;;;26.02;10.43;;;19.30;91.40;;;;;;7381021;19;20003;-77
2023/09/30 22:46:02;;;;;;;22.45;9.82;;;19.20;91.60;;;;;;7379531;19;20015;-78